Terminal Aerodrome Forecast
Issued by NWS Shreveport, LA

Home | Current Version | Previous Version | Text Only | Print | Product List | Glossary On
Versions: 1 2 3 4 5 6 7 8 9 10 11 12 13 14 15 16
000
FTUS44 KSHV 262341
TAFTXK
TAF
KTXK 262341Z 2700/2724 16008KT P6SM VCTS BKN045CB OVC060
      TEMPO 2700/2704 5SM -TSRA OVC045CB
     FM270400 12006KT 3SM -SHRA VCTS BKN025 OVC035CB
     FM271100 09005KT 3SM TSRA BR BKN010 OVC020CB
     FM271800 13006KT P6SM VCTS BKN030 OVC040CB=

USA.gov is the U.S. government's official web portal to all federal, state and local government web resources and services.